Time;durP1;ratioP1;P1;durP2;ratioP2;P2;SDS_P1;SDS_P2;PMS_P1;PMS_P2;Temp;Humidity;BMP_temperature;BMP_pressure;BME280_temperature;BME280_humidity;BME280_pressure;Samples;Min_cycle;Max_cycle;Signal;HPM_P1;HPM_P2
2021/10/30 00:01:41;;;;;;;44.47;18.05;;;;;;;11.54;87.21;100422.31;5075674;28;20032;-46
2021/10/30 00:04:06;;;;;;;40.15;18.13;;;;;;;11.51;87.43;100417.31;5075659;28;20024;-44
2021/10/30 00:06:32;;;;;;;36.75;17.27;;;;;;;11.50;87.54;100425.59;5075126;28;20028;-45
2021/10/30 00:08:57;;;;;;;36.42;19.00;;;;;;;11.48;87.57;100420.41;5074885;28;20087;-44
2021/10/30 00:11:23;;;;;;;43.03;19.45;;;;;;;11.50;87.74;100423.72;5075445;28;20108;-44
2021/10/30 00:13:48;;;;;;;34.90;18.17;;;;;;;11.51;87.71;100416.50;5075416;28;20076;-44
2021/10/30 00:16:19;;;;;;;38.85;18.15;;;;;;;11.54;87.56;100413.41;5075041;28;20464;-45
2021/10/30 00:18:44;;;;;;;42.75;18.20;;;;;;;11.56;87.22;100414.88;5075521;28;20032;-45
2021/10/30 00:21:09;;;;;;;37.28;17.13;;;;;;;11.60;87.46;100404.50;5075310;28;20027;-45
2021/10/30 00:23:35;;;;;;;41.45;19.27;;;;;;;11.61;87.20;100401.63;5074710;28;20054;-43
2021/10/30 00:26:00;;;;;;;34.00;18.40;;;;;;;11.61;87.15;100401.63;5074734;28;20029;-45
2021/10/30 00:28:25;;;;;;;40.38;18.35;;;;;;;11.63;86.79;100404.09;5075395;28;20066;-43
2021/10/30 00:30:51;;;;;;;43.03;19.95;;;;;;;11.60;87.03;100399.94;5075251;28;20028;-44
2021/10/30 00:33:16;;;;;;;40.25;20.08;;;;;;;11.63;87.19;100399.53;5075281;28;20024;-45
2021/10/30 00:35:41;;;;;;;36.25;18.75;;;;;;;11.70;86.93;100404.97;5074726;28;20043;-46
2021/10/30 00:38:06;;;;;;;35.95;18.42;;;;;;;11.76;86.63;100403.34;5075179;28;20074;-44
2021/10/30 00:40:32;;;;;;;38.28;20.33;;;;;;;11.77;86.33;100399.59;5075284;28;20033;-44
2021/10/30 00:42:57;;;;;;;41.30;19.90;;;;;;;11.82;85.69;100407.91;5075363;28;20016;-45
2021/10/30 00:45:23;;;;;;;44.28;21.55;;;;;;;11.82;85.69;100399.84;5074708;28;20368;-46
2021/10/30 00:47:48;;;;;;;38.28;20.65;;;;;;;11.83;85.44;100398.81;5074733;28;20495;-43
2021/10/30 00:50:13;;;;;;;43.58;21.95;;;;;;;11.85;84.82;100402.16;5074767;28;20406;-45
2021/10/30 00:52:39;;;;;;;45.38;21.13;;;;;;;11.93;84.99;100403.84;5074815;28;20028;-46
2021/10/30 00:55:09;;;;;;;46.03;20.42;;;;;;;11.98;84.58;100391.44;5074822;28;20033;-46
2021/10/30 00:57:37;;;;;;;37.35;20.08;;;;;;;12.03;84.52;100386.28;5053561;28;20035;-45
2021/10/30 01:00:03;;;;;;;36.42;19.50;;;;;;;12.05;84.13;100389.56;5065562;28;20042;-46
2021/10/30 01:02:28;;;;;;;36.63;18.50;;;;;;;12.00;84.17;100389.34;5086443;28;20041;-45
2021/10/30 01:04:54;;;;;;;39.80;19.10;;;;;;;12.02;84.13;100381.91;5073157;28;20025;-45
2021/10/30 01:07:19;;;;;;;43.33;18.55;;;;;;;12.01;83.98;100374.03;5073771;28;20082;-43
2021/10/30 01:09:45;;;;;;;43.33;18.30;;;;;;;12.00;83.94;100373.16;5074085;28;20040;-44
2021/10/30 01:12:10;;;;;;;35.90;18.52;;;;;;;12.04;83.97;100374.44;5073937;28;20047;-44
2021/10/30 01:14:36;;;;;;;40.95;18.95;;;;;;;12.05;83.99;100368.00;5074646;28;20029;-45
2021/10/30 01:17:04;;;;;;;38.80;18.48;;;;;;;12.06;83.73;100358.91;5073067;28;20043;-45
2021/10/30 01:19:31;;;;;;;32.80;18.00;;;;;;;12.10;83.63;100353.09;5073974;28;20414;-45
2021/10/30 01:21:57;;;;;;;39.35;17.35;;;;;;;12.06;83.55;100355.38;5074341;28;20488;-46
2021/10/30 01:24:22;;;;;;;38.85;16.85;;;;;;;12.08;83.31;100356.84;5074161;28;20032;-45
2021/10/30 01:26:48;;;;;;;37.97;16.83;;;;;;;12.08;83.44;100351.44;5074289;28;20024;-45
2021/10/30 01:29:14;;;;;;;34.47;15.38;;;;;;;12.12;83.67;100356.41;5073826;28;20029;-46
2021/10/30 01:31:39;;;;;;;32.30;14.95;;;;;;;12.10;83.49;100355.78;5074012;28;20510;-44
2021/10/30 01:34:06;;;;;;;28.95;15.00;;;;;;;12.12;83.38;100359.13;5074251;28;20041;-45
2021/10/30 01:36:34;;;;;;;31.48;15.50;;;;;;;12.11;83.40;100360.13;5073601;28;20429;-44
2021/10/30 01:39:01;;;;;;;34.30;15.52;;;;;;;12.10;83.31;100358.47;5073845;28;20053;-45
2021/10/30 01:41:27;;;;;;;33.33;16.05;;;;;;;12.06;83.69;100358.06;5072596;28;20376;-44
2021/10/30 01:43:55;;;;;;;30.08;15.40;;;;;;;12.02;84.07;100360.31;5073728;28;20025;-45
2021/10/30 01:46:20;;;;;;;;;;;;;;;12.08;83.84;100353.28;5073886;28;20020;-47
2021/10/30 01:48:46;;;;;;;30.55;15.23;;;;;;;12.08;84.06;100353.28;5073422;28;19966;-45
2021/10/30 01:51:12;;;;;;;35.63;17.25;;;;;;;12.04;84.18;100352.88;5073617;28;20021;-46
2021/10/30 01:53:38;;;;;;;33.92;16.58;;;;;;;11.99;84.36;100346.44;5073816;28;20166;-45
2021/10/30 01:56:04;;;;;;;32.22;16.38;;;;;;;11.97;84.69;100335.00;5073043;28;20059;-45
2021/10/30 01:58:30;;;;;;;37.15;17.45;;;;;;;11.93;85.08;100339.13;5072691;28;20033;-44
2021/10/30 02:00:57;;;;;;;33.13;16.40;;;;;;;11.92;84.76;100326.69;5069933;28;20024;-44
2021/10/30 02:03:23;;;;;;;31.83;15.32;;;;;;;11.89;85.00;100311.75;5073356;28;20457;-44
2021/10/30 02:05:52;;;;;;;31.13;15.40;;;;;;;11.89;84.74;100311.75;5072066;28;20030;-47
2021/10/30 02:08:19;;;;;;;25.58;13.98;;;;;;;11.90;84.81;100308.03;5072960;28;20045;-47
2021/10/30 02:10:45;;;;;;;28.35;14.63;;;;;;;11.90;84.65;100297.25;5073086;28;20021;-44
2021/10/30 02:13:10;;;;;;;28.08;13.70;;;;;;;11.82;84.88;100305.47;5072944;28;20064;-45
2021/10/30 02:15:37;;;;;;;31.90;14.35;;;;;;;11.83;85.10;100288.28;5072152;28;20025;-44
2021/10/30 02:18:02;;;;;;;33.38;15.75;;;;;;;11.81;85.15;100287.63;5073231;28;20107;-45
2021/10/30 02:20:27;;;;;;;33.38;14.65;;;;;;;11.78;85.24;100285.34;5072944;28;20031;-45
2021/10/30 02:22:53;;;;;;;30.33;14.95;;;;;;;11.76;85.40;100274.75;5071753;28;20063;-44
2021/10/30 02:25:21;;;;;;;34.60;15.60;;;;;;;11.76;85.46;100287.41;5073256;28;20099;-45
2021/10/30 02:27:47;;;;;;;;;;;;;;;11.76;85.66;100279.31;5073692;28;20016;-44
2021/10/30 02:30:12;;;;;;;33.85;16.27;;;;;;;11.74;85.55;100268.75;5072993;28;19916;-44
2021/10/30 02:32:37;;;;;;;38.70;17.45;;;;;;;11.72;85.67;100262.75;5073206;28;20032;-46
2021/10/30 02:35:03;;;;;;;32.03;17.20;;;;;;;11.72;85.56;100259.22;5073218;28;20051;-47
2021/10/30 02:37:28;;;;;;;38.67;17.95;;;;;;;11.64;85.92;100261.06;5074546;28;20032;-44
2021/10/30 02:39:54;;;;;;;35.63;18.15;;;;;;;11.63;85.92;100258.56;5073817;28;20027;-46
2021/10/30 02:42:19;;;;;;;34.05;18.30;;;;;;;11.58;85.83;100242.16;5072352;28;20020;-46
2021/10/30 02:44:44;;;;;;;35.20;17.83;;;;;;;11.53;86.15;100248.19;5072684;28;20085;-45
2021/10/30 02:47:10;;;;;;;31.88;17.58;;;;;;;11.50;86.37;100248.56;5072577;28;20111;-44
2021/10/30 02:49:36;;;;;;;39.05;18.38;;;;;;;11.50;86.40;100243.16;5071298;28;20029;-44
2021/10/30 02:52:01;;;;;;;37.40;18.75;;;;;;;11.47;86.53;100227.41;5072720;28;20036;-45
2021/10/30 02:54:26;;;;;;;39.83;19.80;;;;;;;11.49;86.69;100230.75;5072577;28;20032;-44
2021/10/30 02:56:52;;;;;;;36.67;18.88;;;;;;;11.49;86.76;100232.63;5072196;28;20027;-45
2021/10/30 02:59:17;;;;;;;31.65;17.05;;;;;;;11.46;87.03;100230.31;5072240;28;20024;-43
2021/10/30 03:01:42;;;;;;;36.13;17.23;;;;;;;11.42;87.25;100216.41;5072173;28;20472;-44
2021/10/30 03:04:08;;;;;;;38.13;18.38;;;;;;;11.41;87.43;100209.38;5072453;28;20028;-44
2021/10/30 03:06:33;;;;;;;33.00;17.30;;;;;;;11.41;87.53;100202.13;5071953;28;20110;-44
2021/10/30 03:08:59;;;;;;;38.60;18.38;;;;;;;11.45;87.35;100196.31;5072063;28;20040;-43
2021/10/30 03:11:25;;;;;;;39.03;18.08;;;;;;;11.49;87.25;100193.03;5072061;28;20082;-44
2021/10/30 03:13:50;;;;;;;33.90;18.30;;;;;;;11.48;87.32;100187.81;5070938;28;20032;-44
2021/10/30 03:16:15;;;;;;;37.75;18.10;;;;;;;11.42;87.59;100192.16;5072236;28;20107;-44
2021/10/30 03:18:41;;;;;;;36.42;18.20;;;;;;;11.43;87.54;100188.44;5072347;28;20108;-42
2021/10/30 03:21:06;;;;;;;35.28;18.42;;;;;;;11.45;87.47;100185.53;5071964;28;20027;-43
2021/10/30 03:23:32;;;;;;;33.70;16.52;;;;;;;11.46;87.78;100173.75;5071995;28;20434;-44
2021/10/30 03:25:57;;;;;;;37.72;17.80;;;;;;;11.52;87.49;100172.91;5074396;28;20055;-44
2021/10/30 03:28:22;;;;;;;36.00;17.33;;;;;;;11.46;87.85;100161.09;5076335;28;20054;-44
2021/10/30 03:30:48;;;;;;;34.05;17.40;;;;;;;11.50;87.72;100156.94;5075902;28;20077;-44
2021/10/30 03:33:13;;;;;;;38.78;17.83;;;;;;;11.52;87.64;100164.84;5076140;28;20040;-45
2021/10/30 03:35:39;;;;;;;33.58;17.65;;;;;;;11.50;87.65;100156.94;5075849;28;20056;-43
2021/10/30 03:38:05;;;;;;;34.63;17.60;;;;;;;11.49;88.12;100155.28;5075969;28;20059;-44
2021/10/30 03:40:30;;;;;;;33.78;17.48;;;;;;;11.49;88.16;100151.78;5075798;28;20032;-45
2021/10/30 03:42:55;;;;;;;36.15;17.80;;;;;;;11.50;88.20;100156.94;5076079;28;20029;-44
2021/10/30 03:45:21;;;;;;;34.85;18.75;;;;;;;11.49;88.36;100146.38;5075916;28;20490;-44
2021/10/30 03:47:46;;;;;;;37.90;17.70;;;;;;;11.48;88.80;100150.94;5075807;28;20593;-43
2021/10/30 03:50:12;;;;;;;33.17;17.63;;;;;;;11.49;88.85;100155.28;5075776;28;20028;-43
2021/10/30 03:52:37;;;;;;;33.47;18.20;;;;;;;11.46;88.96;100150.31;5075686;28;20024;-44
2021/10/30 03:55:04;;;;;;;33.53;18.25;;;;;;;11.41;89.19;100131.25;5075871;28;20032;-45
2021/10/30 03:57:29;;;;;;;33.75;17.50;;;;;;;11.40;89.34;100129.56;5075722;28;20050;-44
2021/10/30 03:59:54;;;;;;;31.80;17.95;;;;;;;11.38;89.63;100127.09;5075136;28;20487;-44
2021/10/30 04:02:20;;;;;;;31.42;18.05;;;;;;;11.46;89.56;100120.69;5083404;28;20036;-44
2021/10/30 04:04:45;;;;;;;35.13;18.13;;;;;;;11.42;89.83;100124.81;5078677;28;20087;-45
2021/10/30 04:07:11;;;;;;;34.80;18.17;;;;;;;11.44;89.59;100114.66;5074970;28;20037;-44
2021/10/30 04:09:36;;;;;;;32.67;17.77;;;;;;;11.43;89.62;100121.09;5075114;28;20438;-45
2021/10/30 04:12:02;;;;;;;33.53;17.38;;;;;;;11.41;89.66;100115.06;5075238;28;20035;-46
2021/10/30 04:14:27;;;;;;;35.05;18.23;;;;;;;11.46;89.71;100111.78;5075417;28;20025;-44
2021/10/30 04:16:53;;;;;;;30.25;18.02;;;;;;;11.39;89.91;100100.97;5075133;28;20032;-44
2021/10/30 04:19:18;;;;;;;35.33;17.42;;;;;;;11.42;89.95;100098.69;5073882;28;20029;-44
2021/10/30 04:21:44;;;;;;;29.42;16.88;;;;;;;11.43;89.83;100102.22;5075339;28;20043;-44
2021/10/30 04:24:09;;;;;;;30.77;17.55;;;;;;;11.45;89.73;100099.31;5075534;28;20029;-43
2021/10/30 04:26:35;;;;;;;30.80;16.80;;;;;;;11.44;89.81;100098.50;5075271;28;20031;-45
2021/10/30 04:29:01;;;;;;;32.42;16.90;;;;;;;11.43;89.63;100097.66;5074680;28;20568;-44
2021/10/30 04:31:29;;;;;;;39.03;17.85;;;;;;;11.43;90.16;100086.88;5073631;28;20025;-44
2021/10/30 04:33:58;;;;;;;38.95;18.50;;;;;;;11.38;90.73;100083.97;5075154;28;20028;-42
2021/10/30 04:36:26;;;;;;;36.85;19.27;;;;;;;11.26;91.37;100080.22;5074563;28;20475;-46
2021/10/30 04:38:52;;;;;;;40.38;19.13;;;;;;;11.24;92.08;100086.84;5074493;28;20051;-44
2021/10/30 04:41:18;;;;;;;42.88;19.73;;;;;;;11.24;92.27;100084.16;5075127;28;20135;-46
2021/10/30 04:43:44;;;;;;;32.88;18.95;;;;;;;11.23;92.30;100077.13;5074897;28;20095;-45
2021/10/30 04:46:10;;;;;;;39.15;18.05;;;;;;;11.23;92.58;100069.03;5074909;28;20155;-47
2021/10/30 04:48:36;;;;;;;38.95;19.55;;;;;;;11.23;92.71;100066.34;5074445;28;20060;-47
2021/10/30 04:51:01;;;;;;;34.60;18.65;;;;;;;11.15;93.13;100054.72;5074644;28;20033;-44
2021/10/30 04:53:27;;;;;;;37.92;18.55;;;;;;;11.17;93.28;100049.16;5074772;28;20040;-46
2021/10/30 04:55:53;;;;;;;37.90;19.70;;;;;;;11.18;93.61;100040.03;5074517;28;20110;-48
2021/10/30 04:58:18;;;;;;;40.80;20.35;;;;;;;11.17;93.80;100049.16;5062372;28;20025;-50
2021/10/30 05:00:43;;;;;;;40.80;21.45;;;;;;;11.16;94.04;100037.56;5069584;28;20048;-52
2021/10/30 05:03:10;;;;;;;38.85;19.55;;;;;;;11.14;94.14;100036.94;5071264;28;20029;-52
2021/10/30 05:05:35;;;;;;;47.33;20.08;;;;;;;11.17;94.28;100041.91;5071049;28;20028;-53
2021/10/30 05:08:01;;;;;;;41.28;20.35;;;;;;;11.17;94.47;100028.44;5069709;28;20036;-54
2021/10/30 05:10:26;;;;;;;50.65;21.88;;;;;;;11.18;94.70;100032.78;5063909;28;20035;-50
2021/10/30 05:12:51;;;;;;;41.08;20.75;;;;;;;11.15;94.67;100029.66;5071830;28;20146;-53
2021/10/30 05:15:17;;;;;;;45.70;20.50;;;;;;;11.19;94.77;100026.38;5059137;28;20029;-52
2021/10/30 05:17:42;;;;;;;37.67;20.13;;;;;;;11.20;94.95;100022.63;5049923;28;20017;-54
2021/10/30 05:20:08;;;;;;;41.10;21.77;;;;;;;11.25;94.90;100029.28;5068443;28;20151;-54
2021/10/30 05:22:33;;;;;;;42.33;21.85;;;;;;;11.26;94.91;100020.13;5070910;28;20052;-53
2021/10/30 05:24:59;;;;;;;44.28;20.98;;;;;;;11.25;95.09;100024.72;5071215;28;20459;-52
2021/10/30 05:27:24;;;;;;;48.80;21.25;;;;;;;11.23;95.11;100016.00;5070560;28;20081;-53
2021/10/30 05:29:50;;;;;;;43.03;21.80;;;;;;;11.22;95.17;100022.44;5069510;28;20132;-50
2021/10/30 05:32:16;;;;;;;45.08;21.27;;;;;;;11.24;94.97;100004.19;5070555;28;20028;-46
2021/10/30 05:34:41;;;;;;;45.67;21.00;;;;;;;11.29;94.89;100008.94;5069457;28;20032;-47
2021/10/30 05:37:07;;;;;;;41.42;20.42;;;;;;;11.30;94.93;99999.84;5070689;28;20025;-47
2021/10/30 05:39:35;;;;;;;41.67;21.05;;;;;;;11.32;94.65;99990.53;5071124;28;20056;-47
2021/10/30 05:42:01;;;;;;;39.00;21.02;;;;;;;11.30;94.80;99989.06;5070673;28;20488;-47
2021/10/30 05:44:26;;;;;;;44.88;21.92;;;;;;;11.32;94.75;99987.84;5070091;28;20047;-48
2021/10/30 05:46:51;;;;;;;41.88;21.27;;;;;;;11.27;94.88;99984.94;5070142;28;20449;-46
2021/10/30 05:49:18;;;;;;;42.83;20.67;;;;;;;11.29;94.96;99976.63;5069547;28;20028;-45
2021/10/30 05:51:43;;;;;;;40.38;19.23;;;;;;;11.30;94.93;99972.91;5070499;28;20040;-45
2021/10/30 05:54:08;;;;;;;40.47;20.33;;;;;;;11.32;94.86;99976.22;5070357;28;20029;-47
2021/10/30 05:56:34;;;;;;;34.40;18.83;;;;;;;11.36;94.52;99970.19;5070673;28;20120;-44
2021/10/30 05:58:59;;;;;;;41.30;19.85;;;;;;;11.32;94.56;99966.28;5070382;28;20036;-46
2021/10/30 06:01:24;;;;;;;36.85;19.58;;;;;;;11.34;94.73;99968.75;5069672;28;20071;-46
2021/10/30 06:03:50;;;;;;;36.10;19.27;;;;;;;11.33;94.54;99969.81;5069960;28;20029;-44
2021/10/30 06:06:15;;;;;;;33.65;17.42;;;;;;;11.33;94.59;99965.22;5070377;28;20028;-45
2021/10/30 06:08:40;;;;;;;35.55;18.75;;;;;;;11.33;94.49;99972.50;5069879;28;20040;-45
2021/10/30 06:11:06;;;;;;;37.00;18.52;;;;;;;11.32;94.37;99981.59;5069361;28;20025;-46
2021/10/30 06:13:31;;;;;;;37.63;17.67;;;;;;;11.34;94.37;99974.97;5069922;28;20028;-46
2021/10/30 06:15:57;;;;;;;34.85;18.45;;;;;;;11.33;94.38;99978.69;5069532;28;21080;-46
2021/10/30 06:18:22;;;;;;;30.52;17.27;;;;;;;11.34;94.10;99980.34;5069109;28;20042;-45
2021/10/30 06:20:47;;;;;;;33.75;16.50;;;;;;;11.34;94.08;99984.91;5062246;28;20415;-47
2021/10/30 06:23:15;;;;;;;32.05;17.35;;;;;;;11.38;94.24;99980.78;5069706;28;20111;-47
2021/10/30 06:25:41;;;;;;;34.05;16.52;;;;;;;11.41;93.73;99981.19;5069469;28;20447;-44
2021/10/30 06:28:07;;;;;;;32.00;16.23;;;;;;;11.43;93.69;99986.38;5069360;28;20028;-47
2021/10/30 06:30:33;;;;;;;32.55;16.92;;;;;;;11.42;93.58;99971.22;5068345;28;20036;-47
2021/10/30 06:32:58;;;;;;;33.20;16.13;;;;;;;11.41;93.51;99973.09;5070427;28;20335;-44
2021/10/30 06:35:23;;;;;;;29.40;15.75;;;;;;;11.40;93.43;99957.97;5066936;28;20107;-45
2021/10/30 06:37:48;;;;;;;34.03;16.38;;;;;;;11.43;93.11;99962.94;5066736;28;20458;-43
2021/10/30 06:40:14;;;;;;;30.83;16.27;;;;;;;11.46;93.12;99964.41;5072391;28;20028;-44
2021/10/30 06:42:41;;;;;;;35.72;15.57;;;;;;;11.47;93.04;99949.88;5060862;28;20460;-46
2021/10/30 06:45:07;;;;;;;31.35;16.90;;;;;;;11.46;93.05;99950.94;5052797;28;20472;-46
2021/10/30 06:47:32;;;;;;;40.92;17.60;;;;;;;11.47;93.03;99939.09;5052585;28;20029;-45
2021/10/30 06:49:59;;;;;;;31.45;17.40;;;;;;;11.44;93.29;99936.81;5052285;28;20035;-45
2021/10/30 06:52:26;;;;;;;37.22;17.10;;;;;;;11.45;93.38;99922.31;5052678;28;20029;-44
2021/10/30 06:54:52;;;;;;;31.00;16.30;;;;;;;11.42;93.22;99922.72;5052532;28;20041;-45
2021/10/30 06:57:17;;;;;;;40.92;17.75;;;;;;;11.42;93.38;99917.34;5052606;28;20077;-48
2021/10/30 06:59:42;;;;;;;30.15;16.92;;;;;;;11.45;93.01;99919.59;5051558;28;20029;-45
2021/10/30 07:02:09;;;;;;;33.13;16.35;;;;;;;11.46;92.85;99907.00;5053336;28;20032;-45
2021/10/30 07:04:35;;;;;;;31.95;16.65;;;;;;;11.45;93.14;99906.13;5053861;28;20025;-45
2021/10/30 07:07:00;;;;;;;35.58;17.95;;;;;;;11.44;93.39;99904.50;5052333;28;20108;-45
2021/10/30 07:09:26;;;;;;;33.75;16.73;;;;;;;11.44;93.38;99917.97;5051084;28;20168;-47
2021/10/30 07:11:52;;;;;;;35.15;17.50;;;;;;;11.41;93.71;99929.16;5051614;28;20072;-45
2021/10/30 07:14:18;;;;;;;37.83;17.77;;;;;;;11.37;93.80;99915.31;5052688;28;20048;-54
2021/10/30 07:16:43;;;;;;;30.85;17.58;;;;;;;11.35;94.11;99913.84;5053446;28;20025;-51
2021/10/30 07:19:09;;;;;;;38.55;18.02;;;;;;;11.34;94.28;99920.25;5053222;28;20070;-54
2021/10/30 07:21:34;;;;;;;32.88;16.65;;;;;;;11.34;94.11;99915.69;5053236;28;20029;-51
2021/10/30 07:24:00;;;;;;;30.13;15.70;;;;;;;11.37;93.85;99914.44;5053131;28;20440;-51
2021/10/30 07:26:25;;;;;;;35.53;17.63;;;;;;;11.36;93.82;99910.13;5052418;28;20422;-53
2021/10/30 07:28:51;;;;;;;31.55;16.77;;;;;;;11.35;94.17;99917.38;5052438;28;20120;-50
2021/10/30 07:31:16;;;;;;;31.67;16.30;;;;;;;11.36;94.32;99905.53;5050725;28;20063;-47
2021/10/30 07:33:41;;;;;;;27.80;15.85;;;;;;;11.35;94.15;99903.06;5052155;28;20056;-47
2021/10/30 07:36:07;;;;;;;35.33;15.98;;;;;;;11.36;94.03;99902.03;5052249;28;20449;-50
2021/10/30 07:38:33;;;;;;;32.95;15.98;;;;;;;11.37;93.88;99903.66;5052059;28;20032;-50
2021/10/30 07:40:58;;;;;;;28.83;16.10;;;;;;;11.41;93.78;99894.16;5051989;28;20033;-51
2021/10/30 07:43:23;;;;;;;32.53;16.58;;;;;;;11.41;93.98;99900.34;5052145;28;20027;-49
2021/10/30 07:45:49;;;;;;;29.55;15.93;;;;;;;11.43;93.59;99889.38;5052276;28;20100;-47
2021/10/30 07:48:14;;;;;;;37.40;17.30;;;;;;;11.42;93.98;99885.84;5052214;28;20116;-49
2021/10/30 07:50:39;;;;;;;30.80;16.98;;;;;;;11.41;94.00;99883.38;5051933;28;20024;-46
2021/10/30 07:53:05;;;;;;;33.75;16.45;;;;;;;11.46;93.80;99880.88;5052098;28;20465;-46
2021/10/30 07:55:30;;;;;;;33.97;16.33;;;;;;;11.46;93.70;99870.09;5052043;28;20025;-46
2021/10/30 07:57:56;;;;;;;28.90;15.50;;;;;;;11.44;93.52;99872.16;5052208;28;20536;-46
2021/10/30 08:00:22;;;;;;;30.17;15.32;;;;;;;11.49;94.19;99869.66;5051940;28;20514;-44
2021/10/30 08:02:48;;;;;;;24.58;14.55;;;;;;;11.46;93.76;99894.34;5052322;28;20025;-45
2021/10/30 08:05:14;;;;;;;26.52;14.57;;;;;;;11.50;93.08;99859.72;5052085;28;20468;-46
2021/10/30 08:07:43;;;;;;;26.52;15.30;;;;;;;11.52;93.37;99863.03;5051902;28;20039;-47
2021/10/30 08:10:09;;;;;;;24.98;14.57;;;;;;;11.51;93.07;99878.38;5050086;28;20037;-47
2021/10/30 08:12:35;;;;;;;28.35;14.57;;;;;;;11.54;93.24;99883.34;5067137;28;20056;-48
2021/10/30 08:15:01;;;;;;;28.15;13.45;;;;;;;11.54;93.10;99883.34;5075303;28;20109;-47
2021/10/30 08:17:27;;;;;;;24.55;12.35;;;;;;;11.58;92.45;99884.53;5072033;28;20119;-45
2021/10/30 08:19:52;;;;;;;24.83;13.52;;;;;;;11.63;92.40;99882.03;5057457;28;20120;-47
2021/10/30 08:22:17;;;;;;;27.13;13.52;;;;;;;11.62;92.54;99883.09;5055395;28;20486;-46
2021/10/30 08:24:45;;;;;;;22.42;12.88;;;;;;;11.67;92.29;99878.94;5068541;28;20496;-47
2021/10/30 08:27:11;;;;;;;;;;;;;;;11.69;92.10;99880.41;5075588;28;20031;-45
2021/10/30 08:29:36;;;;;;;24.08;12.50;;;;;;;11.70;91.90;99870.44;5071384;28;19916;-44
2021/10/30 08:32:02;;;;;;;23.88;13.05;;;;;;;11.68;92.33;99878.72;5075438;28;20036;-46
2021/10/30 08:34:28;;;;;;;22.23;12.43;;;;;;;11.69;92.14;99874.16;5074994;28;20483;-46
2021/10/30 08:36:53;;;;;;;24.05;11.95;;;;;;;11.71;92.30;99869.38;5073371;28;20053;-47
2021/10/30 08:39:20;;;;;;;23.35;12.48;;;;;;;11.76;91.76;99874.97;5074916;28;20476;-48
2021/10/30 08:41:45;;;;;;;19.08;11.30;;;;;;;11.78;91.84;99862.94;5075048;28;20024;-48
2021/10/30 08:44:11;;;;;;;17.63;10.55;;;;;;;11.80;91.85;99865.41;5074963;28;20078;-47
2021/10/30 08:46:37;;;;;;;22.52;11.18;;;;;;;11.81;91.84;99858.97;5074896;28;20443;-45
2021/10/30 08:49:02;;;;;;;17.98;10.07;;;;;;;11.80;91.82;99855.47;5074698;28;20059;-47
2021/10/30 08:51:29;;;;;;;22.42;11.38;;;;;;;11.83;91.82;99852.34;5075058;28;20036;-48
2021/10/30 08:53:55;;;;;;;24.52;12.55;;;;;;;11.80;92.44;99860.03;5075173;28;20036;-49
2021/10/30 08:56:22;;;;;;;19.60;11.73;;;;;;;11.78;92.91;99867.50;5075258;28;20046;-46
2021/10/30 08:58:48;;;;;;;28.02;11.52;;;;;;;11.77;92.61;99865.81;5057397;28;20463;-53
2021/10/30 09:01:13;;;;;;;27.38;13.23;;;;;;;11.78;93.09;99862.09;5076578;28;20035;-53
2021/10/30 09:03:39;;;;;;;23.00;12.00;;;;;;;11.73;93.86;99864.63;5077563;28;20387;-54
2021/10/30 09:06:05;;;;;;;17.38;10.43;;;;;;;11.73;93.34;99856.53;5077606;28;20036;-54
2021/10/30 09:08:31;;;;;;;20.10;11.20;;;;;;;11.77;93.64;99863.13;5076705;28;20088;-54
2021/10/30 09:11:01;;;;;;;24.83;11.90;;;;;;;11.72;93.83;99858.41;5075836;28;20533;-55
2021/10/30 09:13:29;;;;;;;18.98;10.73;;;;;;;11.67;94.41;99843.91;5075227;28;20055;-54
2021/10/30 09:15:55;;;;;;;23.25;12.35;;;;;;;11.71;94.16;99855.91;5074793;28;20028;-56
2021/10/30 09:18:30;;;;;;;24.38;12.23;;;;;;;11.68;94.65;99845.56;5073787;28;20109;-56
2021/10/30 09:20:57;;;;;;;20.25;11.50;;;;;;;11.69;94.64;99841.81;5074465;28;20028;-56
2021/10/30 09:23:27;;;;;;;22.65;11.05;;;;;;;11.67;94.74;99843.91;5073381;28;20026;-55
2021/10/30 09:26:01;;;;;;;19.25;10.65;;;;;;;11.67;94.55;99839.34;5073506;28;20047;-53
2021/10/30 09:28:29;;;;;;;22.88;12.10;;;;;;;11.63;94.86;99841.63;5055324;28;20492;-55
2021/10/30 09:31:04;;;;;;;;;;;;;;;11.67;95.00;99827.75;5055464;28;20029;-51
2021/10/30 09:33:31;;;;;;;18.23;10.70;;;;;;;11.65;94.90;99834.16;5055730;28;20371;-55
2021/10/30 09:36:13;;;;;;;20.70;11.00;;;;;;;11.67;94.81;99831.25;5054849;28;20105;-54
2021/10/30 09:38:41;;;;;;;21.73;11.00;;;;;;;11.74;94.69;99833.91;5060299;28;20112;-56
2021/10/30 09:41:28;;;;;;;18.65;9.90;;;;;;;11.72;94.21;99836.00;5074342;28;20021;-55
2021/10/30 09:43:55;;;;;;;19.00;11.15;;;;;;;11.72;94.50;99823.34;5074276;28;20490;-58
2021/10/30 09:46:21;;;;;;;20.30;11.38;;;;;;;11.75;94.57;99840.97;5074170;28;20033;-56
2021/10/30 09:48:46;;;;;;;23.05;10.75;;;;;;;11.74;94.49;99820.44;5074038;28;20028;-57
2021/10/30 09:51:30;;;;;;;18.55;10.52;;;;;;;11.80;94.66;99822.28;5074099;28;20379;-58
2021/10/30 09:53:55;;;;;;;20.63;11.60;;;;;;;11.80;94.82;99823.09;5073977;28;20029;-53
2021/10/30 09:56:21;;;;;;;30.25;12.80;;;;;;;11.84;94.92;99815.41;5073652;28;20024;-52
2021/10/30 09:58:47;;;;;;;24.90;13.10;;;;;;;11.83;95.12;99817.28;5073310;28;20029;-50
2021/10/30 10:01:20;;;;;;;24.42;13.57;;;;;;;11.82;95.18;99820.19;5074542;28;20366;-53
2021/10/30 10:03:50;;;;;;;24.15;12.38;;;;;;;11.85;95.01;99820.59;5084855;28;20036;-50
2021/10/30 10:06:17;;;;;;;29.60;12.90;;;;;;;11.84;95.08;99836.97;5073450;28;20027;-54
2021/10/30 10:08:48;;;;;;;18.98;11.80;;;;;;;11.79;95.06;99823.31;5075206;28;20040;-52
2021/10/30 10:11:16;;;;;;;21.88;11.98;;;;;;;11.79;94.84;99826.00;5074821;28;20368;-53
2021/10/30 10:13:47;;;;;;;28.23;12.95;;;;;;;11.78;95.52;99824.38;5073868;28;20028;-55
2021/10/30 10:16:20;;;;;;;20.63;12.65;;;;;;;11.76;95.38;99808.38;5058878;28;20021;-56
2021/10/30 10:18:50;;;;;;;21.95;13.55;;;;;;;11.75;95.71;99814.84;5053585;28;20053;-56
2021/10/30 10:21:30;;;;;;;24.23;14.02;;;;;;;11.73;95.93;99816.91;5053233;28;20025;-58
2021/10/30 10:23:57;;;;;;;19.55;13.10;;;;;;;11.79;95.63;99821.44;5052061;28;20029;-57
2021/10/30 10:26:44;;;;;;;22.92;13.15;;;;;;;11.81;95.56;99815.84;5053383;28;20021;-55
2021/10/30 10:29:10;;;;;;;25.70;12.30;;;;;;;11.83;95.74;99805.69;5053185;28;20061;-54
2021/10/30 10:31:47;;;;;;;23.50;12.07;;;;;;;11.83;95.29;99802.97;5053275;28;20060;-56
2021/10/30 10:34:14;;;;;;;21.77;12.00;;;;;;;11.83;95.76;99806.50;5053058;28;20377;-57
2021/10/30 10:36:40;;;;;;;20.25;12.10;;;;;;;11.85;95.54;99795.50;5052431;28;20029;-57
2021/10/30 10:39:06;;;;;;;17.60;11.30;;;;;;;11.87;95.55;99790.75;5052868;28;20051;-56
2021/10/30 10:41:37;;;;;;;17.02;11.07;;;;;;;11.89;94.90;99794.06;5053660;28;20468;-58
2021/10/30 10:44:06;;;;;;;16.48;10.10;;;;;;;11.92;95.21;99799.00;5053121;28;20025;-56
2021/10/30 10:46:32;;;;;;;17.10;11.10;;;;;;;11.94;95.02;99786.13;5053306;28;20090;-54
2021/10/30 10:49:26;;;;;;;23.42;12.40;;;;;;;11.95;95.41;99787.78;5053293;28;20029;-51
2021/10/30 10:52:14;;;;;;;24.13;12.05;;;;;;;11.92;95.64;99782.84;5069569;28;20028;-49
2021/10/30 10:54:54;;;;;;;20.58;11.43;;;;;;;11.97;95.58;99791.09;5073020;28;20483;-48
2021/10/30 10:57:25;;;;;;;20.20;12.13;;;;;;;11.99;95.06;99788.19;5072739;28;20085;-48
2021/10/30 11:00:10;;;;;;;16.95;11.48;;;;;;;11.97;95.37;99779.50;5073139;28;20155;-50
2021/10/30 11:02:37;;;;;;;18.95;12.20;;;;;;;11.99;95.40;99767.44;5072765;28;20025;-48
2021/10/30 11:05:08;;;;;;;17.58;11.60;;;;;;;12.04;95.28;99783.81;5072407;28;20103;-49
2021/10/30 11:07:39;;;;;;;21.33;12.18;;;;;;;12.03;95.45;99775.91;5072472;28;20119;-47
2021/10/30 11:10:08;;;;;;;20.55;12.63;;;;;;;12.04;95.41;99770.31;5072404;28;20048;-50
2021/10/30 11:12:34;;;;;;;19.95;11.63;;;;;;;12.06;95.46;99762.84;5072332;28;20058;-51